Terminal Aerodrome Forecast
Issued by NWS

Home | Current Version | Previous Version | Text Only | Print | Product List | Glossary On
Versions: 1 2 3 4 5 6 7 8 9 10 11 12 13 14 15 16 17 18 19 20 21
000
FTUS43 KDTX 020500
TAFMBS
TAF
KMBS 020539Z 0206/0306 22005KT P6SM FEW045 BKN200
     FM020900 23005KT 5SM BR SCT015 BKN060
     FM021300 25007KT P6SM SCT020 BKN040
     FM021700 26012KT P6SM SCT045
     FM030000 28005KT P6SM SCT060=

USA.gov is the U.S. government's official web portal to all federal, state and local government web resources and services.